Time;durP1;ratioP1;P1;durP2;ratioP2;P2;SDS_P1;SDS_P2;PMS_P1;PMS_P2;Temp;Humidity;BMP_temperature;BMP_pressure;BME280_temperature;BME280_humidity;BME280_pressure;Samples;Min_cycle;Max_cycle;Signal;HPM_P1;HPM_P2
2022/08/18 00:00:13;;;;;;;7.65;5.80;;;20.20;99.90;;;19.55;77.42;97093.88;4955595;29;21019;-76
2022/08/18 00:02:41;;;;;;;8.60;5.88;;;20.20;99.90;;;19.55;77.90;97087.72;4955759;29;20903;-77
2022/08/18 00:05:08;;;;;;;8.93;6.20;;;20.20;99.90;;;19.56;79.25;97100.03;4955367;29;20406;-76
2022/08/18 00:07:35;;;;;;;7.43;5.47;;;20.20;99.90;;;19.34;76.59;97087.53;4955612;29;20402;-77
2022/08/18 00:10:02;;;;;;;7.35;5.47;;;20.00;99.90;;;19.29;76.83;97091.16;4955562;29;20457;-77
2022/08/18 00:12:36;;;;;;;7.47;5.70;;;19.90;99.90;;;19.15;77.43;97097.78;4955413;29;20417;-76
2022/08/18 00:15:04;;;;;;;8.63;5.73;;;19.80;99.90;;;19.20;79.79;97095.72;4955070;29;20437;-76
2022/08/18 00:17:32;;;;;;;6.95;5.50;;;19.90;99.90;;;19.23;79.54;97084.38;4955397;29;20488;-76
2022/08/18 00:19:59;;;;;;;8.95;5.93;;;19.90;99.90;;;19.20;79.01;97081.50;4955333;29;20421;-76
2022/08/18 00:22:25;;;;;;;7.82;5.50;;;19.90;99.90;;;19.01;77.46;97075.66;4955201;29;20414;-76
2022/08/18 00:24:55;;;;;;;7.63;5.70;;;19.70;99.90;;;19.05;78.65;97073.91;4954733;29;20522;-76
2022/08/18 00:27:25;;;;;;;7.95;6.13;;;19.70;99.90;;;19.08;79.05;97067.94;4955100;29;20413;-76
2022/08/18 00:29:52;;;;;;;6.93;5.57;;;19.70;99.90;;;19.07;77.60;97069.03;4937851;29;20791;-75
2022/08/18 00:32:22;;;;;;;7.22;5.40;;;19.80;99.90;;;19.02;76.94;97067.28;4955288;29;20414;-76
2022/08/18 00:34:49;;;;;;;7.53;5.95;;;19.70;99.90;;;19.00;78.69;97066.03;4954569;29;20414;-75
2022/08/18 00:37:15;;;;;;;7.68;5.47;;;19.70;99.90;;;18.93;77.08;97069.97;4954925;29;20456;-76
2022/08/18 00:39:41;;;;;;;7.93;5.97;;;19.60;99.90;;;18.88;77.13;97069.28;4955064;29;20444;-76
2022/08/18 00:42:19;;;;;;;7.35;5.85;;;19.50;99.90;;;18.87;77.22;97065.81;4954881;29;20958;-76
2022/08/18 00:44:45;;;;;;;8.45;5.53;;;19.50;99.90;;;18.85;77.27;97061.88;4954383;29;20900;-76
2022/08/18 00:47:11;;;;;;;8.40;5.60;;;19.50;99.90;;;18.86;79.11;97063.47;4954832;29;20425;-76
2022/08/18 00:49:40;;;;;;;7.90;5.53;;;19.60;99.90;;;18.94;80.15;97060.03;4954937;29;20497;-76
2022/08/18 00:52:10;;;;;;;6.88;5.60;;;19.70;99.90;;;19.00;80.28;97066.81;4954746;29;20402;-76
2022/08/18 00:54:40;;;;;;;7.80;5.70;;;19.80;99.90;;;19.07;80.10;97058.31;4954269;29;20896;-75
2022/08/18 00:57:07;;;;;;;6.82;5.57;;;19.80;99.90;;;19.10;80.08;97053.09;4954741;29;20410;-76
2022/08/18 00:59:42;;;;;;;8.38;5.35;;;19.80;99.90;;;19.11;80.44;97046.63;4954547;29;20404;-76
2022/08/18 01:02:13;;;;;;;8.55;5.32;;;19.80;99.90;;;19.13;80.70;97046.31;4954567;29;20508;-76
2022/08/18 01:04:50;;;;;;;6.50;5.45;;;19.80;99.90;;;19.15;81.12;97039.53;4954244;29;20493;-76
2022/08/18 01:07:23;;;;;;;7.23;6.03;;;19.90;99.90;;;19.19;81.10;97045.84;4953527;28;20409;-76
2022/08/18 01:09:51;;;;;;;7.53;5.40;;;19.90;99.90;;;19.19;81.67;97047.72;4954433;29;20399;-75
2022/08/18 01:12:17;;;;;;;5.82;5.10;;;19.90;99.90;;;19.21;82.51;97042.84;4954570;29;20405;-75
2022/08/18 01:14:45;;;;;;;6.53;5.63;;;20.00;99.90;;;19.22;82.16;97036.38;4953808;29;20455;-76
2022/08/18 01:22:58;;;;;;;6.80;5.57;;;19.90;99.90;;;19.17;80.73;97037.31;4954056;29;20778;-75
2022/08/18 01:28:02;;;;;;;7.22;5.15;;;19.90;99.90;;;19.20;82.70;97025.16;4970891;28;20436;-72
2022/08/18 01:30:31;;;;;;;7.20;5.20;;;19.90;99.90;;;19.20;83.07;97019.78;4973318;28;20443;-74
2022/08/18 01:32:57;;;;;;;6.18;5.20;;;19.90;99.90;;;19.21;83.39;97010.66;4972896;28;20781;-74
2022/08/18 01:35:26;;;;;;;6.97;5.18;;;19.90;99.90;;;19.20;83.12;97006.38;4973178;28;20499;-74
2022/08/18 01:37:54;;;;;;;8.52;5.72;;;19.90;99.90;;;19.22;82.34;97013.03;4953916;29;20410;-74
2022/08/18 01:40:23;;;;;;;6.95;5.40;;;19.90;99.90;;;19.21;82.35;97010.66;4953815;29;20509;-75
2022/08/18 01:42:49;;;;;;;6.30;5.40;;;19.90;99.90;;;19.19;83.18;97012.84;4953522;28;21015;-75
2022/08/18 01:45:19;;;;;;;8.85;5.28;;;19.90;99.90;;;19.19;83.35;96996.75;4953765;29;20410;-75
2022/08/18 01:47:45;;;;;;;6.15;5.03;;;19.90;99.90;;;19.18;83.87;97001.31;4953762;28;20413;-74
2022/08/18 01:50:12;;;;;;;6.60;5.73;;;19.90;99.90;;;19.18;84.06;96989.81;4953723;29;20508;-74
2022/08/18 01:52:38;;;;;;;6.88;5.22;;;19.90;99.90;;;19.18;83.89;96985.22;4953667;28;20405;-74
2022/08/18 01:55:06;;;;;;;7.38;5.28;;;19.90;99.90;;;19.18;81.79;96977.16;4953358;29;20962;-74
2022/08/18 01:57:37;;;;;;;6.53;5.30;;;19.90;99.90;;;19.16;80.22;96970.56;4953503;29;20410;-75
2022/08/18 02:00:05;;;;;;;6.75;5.35;;;19.90;99.90;;;19.09;79.39;96975.63;4953515;28;20805;-75
2022/08/18 02:02:32;;;;;;;6.10;5.22;;;19.80;99.90;;;18.99;81.66;96974.03;4953480;28;20410;-75
2022/08/18 02:05:09;;;;;;;5.78;5.18;;;19.70;99.90;;;18.99;83.21;96975.91;4953069;29;20412;-74
2022/08/18 02:07:35;;;;;;;5.63;5.03;;;19.70;99.90;;;19.01;84.16;96987.91;4953557;28;20892;-75
2022/08/18 02:10:02;;;;;;;6.93;5.32;;;19.70;99.90;;;19.04;84.72;96987.28;4953403;28;20406;-74
2022/08/18 02:12:29;;;;;;;7.68;5.78;;;19.80;99.90;;;19.05;82.61;96991.53;4953322;28;20438;-74
2022/08/18 02:14:55;;;;;;;9.25;5.55;;;19.80;99.90;;;19.05;82.39;96982.69;4952906;29;20417;-75
2022/08/18 02:17:22;;;;;;;5.77;4.73;;;19.80;99.90;;;19.02;83.21;96975.31;4953066;28;20446;-74
2022/08/18 02:19:48;;;;;;;6.03;5.40;;;19.80;99.90;;;19.02;83.50;96976.06;4953176;28;20421;-74
2022/08/18 02:22:18;;;;;;;5.90;5.18;;;19.70;99.90;;;19.05;82.75;96974.66;4953303;29;20774;-75
2022/08/18 02:24:44;;;;;;;7.25;5.68;;;19.70;99.90;;;19.04;82.45;96976.53;4952793;28;20418;-75
2022/08/18 02:27:13;;;;;;;6.05;5.40;;;19.80;99.90;;;19.05;81.34;96974.66;4952973;29;20417;-75
2022/08/18 02:29:40;;;;;;;5.93;5.30;;;19.80;99.90;;;19.04;80.49;96986.47;4953145;28;20461;-74
2022/08/18 02:32:07;;;;;;;7.75;5.63;;;19.70;99.90;;;19.00;81.53;96989.03;4953239;29;20490;-74
2022/08/18 02:34:33;;;;;;;8.38;5.75;;;19.70;99.90;;;19.00;81.85;96988.22;4952674;28;20406;-75
2022/08/18 02:37:00;;;;;;;6.13;5.47;;;19.70;99.90;;;19.01;81.25;96984.44;4952919;29;20418;-75
2022/08/18 02:39:26;;;;;;;7.00;5.40;;;19.70;99.90;;;19.03;81.99;96979.53;4953069;28;20474;-74
2022/08/18 02:41:52;;;;;;;6.03;5.40;;;19.70;99.90;;;19.02;81.82;96975.31;4951575;29;20860;-74
2022/08/18 02:44:18;;;;;;;6.28;5.57;;;19.70;99.90;;;19.01;82.13;96973.72;4952547;29;20409;-74
2022/08/18 02:46:51;;;;;;;7.93;5.80;;;19.70;99.90;;;19.06;79.76;96973.56;4952812;28;20779;-75
2022/08/18 02:49:18;;;;;;;6.68;5.70;;;19.70;99.90;;;19.09;80.63;96967.56;4952926;29;20409;-74
2022/08/18 02:51:45;;;;;;;7.90;5.93;;;19.70;99.90;;;19.09;79.54;96965.69;4952727;28;20532;-75
2022/08/18 02:54:11;;;;;;;6.97;5.70;;;19.70;99.90;;;19.07;79.89;96970.56;4952303;28;20414;-75
2022/08/18 02:56:37;;;;;;;9.32;6.30;;;19.70;99.90;;;19.03;78.82;96969.59;4952646;29;20490;-75
2022/08/18 02:59:07;;;;;;;7.38;5.90;;;19.70;99.90;;;19.08;79.43;96974.03;4952763;28;20414;-74
2022/08/18 03:01:38;;;;;;;7.70;5.82;;;19.80;99.90;;;18.99;78.90;96970.56;4952585;29;20433;-74
2022/08/18 03:04:07;;;;;;;10.10;5.83;;;19.70;99.90;;;18.93;79.62;96970.72;4952059;28;20947;-75
2022/08/18 03:06:36;;;;;;;8.88;6.15;;;19.60;99.90;;;18.94;80.06;96976.88;4952516;29;20425;-75
2022/08/18 03:09:03;;;;;;;7.05;5.82;;;19.70;99.90;;;19.01;79.11;96963.78;4951272;29;20413;-75
2022/08/18 03:11:29;;;;;;;6.55;5.68;;;19.70;99.90;;;19.00;79.28;96961.41;4952651;29;20557;-75
2022/08/18 03:13:56;;;;;;;6.60;5.57;;;19.70;99.90;;;18.94;79.17;96950.81;4952075;29;20405;-75
2022/08/18 03:16:26;;;;;;;10.25;5.93;;;19.70;99.90;;;18.88;80.45;96953.97;4952513;28;20406;-74
2022/08/18 03:18:52;;;;;;;7.10;5.67;;;19.60;99.90;;;18.84;81.37;96958.41;4952443;28;20492;-74
2022/08/18 03:21:23;;;;;;;6.57;5.85;;;19.60;99.90;;;18.81;81.88;96957.13;4952447;28;21001;-75
2022/08/18 03:23:50;;;;;;;9.07;5.88;;;19.60;99.90;;;18.81;81.99;96961.69;4952010;29;20521;-75
2022/08/18 03:26:20;;;;;;;7.30;5.60;;;19.60;99.90;;;18.80;82.43;96966.25;4952267;28;20473;-74
2022/08/18 03:28:50;;;;;;;7.60;6.07;;;19.50;99.90;;;18.79;83.00;96962.03;4952493;28;20896;-75
2022/08/18 03:31:18;;;;;;;8.05;5.85;;;19.50;99.90;;;18.80;83.26;96954.75;4955384;29;20895;-75
2022/08/18 03:33:46;;;;;;;6.65;5.50;;;19.60;99.90;;;18.81;82.08;96949.06;4955737;29;20410;-74
2022/08/18 03:36:16;;;;;;;7.22;5.70;;;19.60;99.90;;;18.79;81.34;96955.88;4956182;29;20490;-74
2022/08/18 03:38:45;;;;;;;6.75;5.63;;;19.50;99.90;;;18.75;81.98;96949.53;4956243;28;20820;-75
2022/08/18 03:41:16;;;;;;;7.68;5.70;;;19.50;99.90;;;18.78;79.53;96943.56;4956074;29;20832;-74
2022/08/18 03:43:42;;;;;;;10.02;6.40;;;19.50;99.90;;;18.73;79.48;96947.16;4955580;29;20424;-75
2022/08/18 03:46:11;;;;;;;7.50;6.03;;;19.40;99.90;;;18.68;81.32;96944.66;4955993;28;20410;-74
2022/08/18 03:48:40;;;;;;;8.32;5.45;;;19.40;99.90;;;18.67;81.88;96948.44;4955935;28;20489;-74
2022/08/18 03:51:14;;;;;;;7.28;6.07;;;19.40;99.90;;;18.67;82.27;96948.44;4955903;29;20402;-75
2022/08/18 03:53:40;;;;;;;6.43;5.53;;;19.40;99.90;;;18.67;82.66;96945.75;4955510;29;20410;-74
2022/08/18 03:56:14;;;;;;;7.13;5.60;;;19.40;99.90;;;18.69;83.03;96943.56;4955751;29;20841;-75
2022/08/18 03:58:40;;;;;;;8.40;5.90;;;19.40;99.90;;;18.70;82.57;96939.78;4954541;29;20469;-74
2022/08/18 04:01:06;;;;;;;6.72;5.97;;;19.40;99.90;;;18.70;80.63;96945.13;4955678;28;20907;-74
2022/08/18 04:03:32;;;;;;;7.28;5.53;;;19.40;99.90;;;18.66;81.91;96944.16;4955221;29;20416;-75
2022/08/18 04:05:58;;;;;;;7.95;5.45;;;19.40;99.90;;;18.70;81.84;96938.97;4955564;29;20457;-74
2022/08/18 04:08:24;;;;;;;7.13;5.57;;;19.40;99.90;;;18.67;82.95;96943.06;4955586;29;20413;-74
2022/08/18 04:10:50;;;;;;;9.02;5.78;;;19.40;99.90;;;18.68;83.02;96943.84;4955594;29;20492;-75
2022/08/18 04:13:18;;;;;;;7.90;5.50;;;19.40;99.90;;;18.69;82.57;96948.13;4955093;28;20501;-75
2022/08/18 04:15:43;;;;;;;6.65;5.82;;;19.50;99.90;;;18.67;82.94;96951.13;4955304;29;20406;-74
2022/08/18 04:18:10;;;;;;;5.97;5.10;;;19.40;99.90;;;18.67;83.57;96950.31;4955556;29;20497;-75
2022/08/18 04:20:37;;;;;;;6.82;5.45;;;19.40;99.90;;;18.68;83.66;96954.59;4955502;28;20422;-75
2022/08/18 04:23:03;;;;;;;7.28;5.60;;;19.40;99.90;;;18.67;84.01;96955.69;4954979;28;20444;-75
2022/08/18 04:25:31;;;;;;;7.60;5.35;;;19.40;99.90;;;18.68;81.94;96958.06;4955258;29;20501;-74
2022/08/18 04:28:00;;;;;;;7.83;5.47;;;19.40;99.90;;;18.65;82.77;96961.34;4955194;28;20417;-75
2022/08/18 04:30:27;;;;;;;7.85;5.78;;;19.40;99.90;;;18.62;83.27;96959.31;4969942;28;20962;-74
2022/08/18 04:32:53;;;;;;;7.35;6.00;;;19.40;99.90;;;18.62;83.70;96964.69;4954873;28;20822;-74
2022/08/18 04:35:21;;;;;;;6.22;5.45;;;19.40;99.90;;;18.62;83.99;96972.72;4955026;28;20884;-74
2022/08/18 04:37:47;;;;;;;8.00;6.10;;;19.40;99.90;;;18.63;84.20;96968.94;4955142;28;20433;-74
2022/08/18 04:40:13;;;;;;;8.17;5.40;;;19.40;99.90;;;18.63;84.36;96968.16;4955055;29;20926;-75
2022/08/18 04:42:39;;;;;;;8.10;5.85;;;19.40;99.90;;;18.65;83.93;96969.41;4954891;28;20410;-75
2022/08/18 04:45:07;;;;;;;6.47;5.63;;;19.40;99.90;;;18.65;84.22;96969.41;4954831;29;20421;-75
2022/08/18 04:47:34;;;;;;;6.63;5.93;;;19.40;99.90;;;18.66;84.19;96970.19;4955011;28;20406;-74
2022/08/18 04:50:01;;;;;;;8.38;6.05;;;19.40;99.90;;;18.65;82.96;96969.41;4954963;28;20526;-75
2022/08/18 04:55:12;;;;;;;7.07;5.83;;;19.40;99.90;;;18.62;83.41;96988.00;4954824;29;20506;-74
2022/08/18 04:57:38;;;;;;;7.00;5.70;;;19.40;99.90;;;18.61;84.03;96991.78;4954699;29;20414;-75
2022/08/18 05:00:07;;;;;;;9.35;5.60;;;19.30;99.90;;;18.62;84.58;96991.47;4954589;29;20426;-75
2022/08/18 05:02:34;;;;;;;9.05;5.50;;;19.40;99.90;;;18.66;84.99;97000.47;4954699;28;20410;-75
2022/08/18 05:05:02;;;;;;;7.82;5.78;;;19.40;99.90;;;18.71;84.70;96996.88;4952800;29;20779;-75
2022/08/18 05:07:29;;;;;;;7.75;6.40;;;19.40;99.90;;;18.74;84.95;97002.38;4954492;28;20414;-75
2022/08/18 05:09:55;;;;;;;6.68;5.90;;;19.50;99.90;;;18.79;84.66;97004.94;4953430;29;20417;-74
2022/08/18 05:12:21;;;;;;;7.23;6.03;;;19.50;99.90;;;18.81;84.75;96997.34;4954394;28;20414;-74
2022/08/18 05:14:47;;;;;;;7.63;5.80;;;19.60;99.90;;;18.83;84.89;96997.84;4953885;29;20441;-74
2022/08/18 05:17:15;;;;;;;7.15;5.82;;;19.60;99.90;;;18.87;85.16;96992.63;4954355;29;20445;-74
2022/08/18 05:19:43;;;;;;;6.53;5.90;;;19.60;99.90;;;18.88;84.82;96986.94;4954289;28;20947;-75
2022/08/18 05:22:09;;;;;;;7.72;5.90;;;19.60;99.90;;;18.90;84.52;96989.31;4954274;28;20425;-75
2022/08/18 05:24:36;;;;;;;8.45;6.30;;;19.70;99.90;;;18.95;84.57;96981.09;4952640;29;20846;-75
2022/08/18 05:27:02;;;;;;;8.57;5.90;;;19.70;99.90;;;18.99;84.25;96983.97;4954065;29;20468;-75
2022/08/18 05:29:35;;;;;;;8.50;5.85;;;19.70;99.90;;;19.03;84.21;96984.91;4954051;29;20406;-75
2022/08/18 05:32:06;;;;;;;8.82;6.30;;;19.70;99.90;;;19.06;84.03;96985.06;4954081;28;20413;-74
2022/08/18 05:34:34;;;;;;;7.72;5.85;;;19.70;99.90;;;19.10;82.70;96975.28;4953645;28;20414;-75
2022/08/18 05:37:23;;;;;;;8.27;6.30;;;19.80;99.90;;;19.16;83.70;96981.28;4968798;28;20919;-75
2022/08/18 05:39:56;;;;;;;7.70;6.22;;;19.80;99.90;;;19.21;83.55;96973.09;4953943;28;20548;-74
2022/08/18 05:42:27;;;;;;;7.07;6.03;;;19.90;99.90;;;19.27;83.90;96974.50;4953990;28;20471;-75
2022/08/18 05:44:54;;;;;;;7.30;6.25;;;20.00;99.90;;;19.32;83.71;96980.47;4953449;28;20402;-74
2022/08/18 05:47:24;;;;;;;6.57;5.78;;;20.00;99.90;;;19.38;83.91;96975.75;4953720;29;20414;-75
2022/08/18 05:49:53;;;;;;;7.65;6.07;;;20.10;99.90;;;19.41;83.90;96975.09;4953815;29;20402;-74
2022/08/18 05:52:29;;;;;;;7.47;6.15;;;20.10;99.90;;;19.43;83.31;96966.75;4953421;28;20414;-75
2022/08/18 05:57:51;;;;;;;8.15;6.20;;;20.10;99.90;;;19.43;82.60;96951.44;4953619;29;20409;-74
2022/08/18 06:00:19;;;;;;;8.50;5.93;;;20.10;99.90;;;19.44;83.16;96969.13;4953643;28;20456;-74
2022/08/18 06:02:54;;;;;;;8.82;6.20;;;20.10;99.90;;;19.46;83.10;96971.50;4953172;28;20499;-74
2022/08/18 06:05:26;;;;;;;8.52;5.90;;;20.20;99.90;;;19.48;83.74;96969.28;4953449;29;20406;-74
2022/08/18 06:07:58;;;;;;;6.22;5.63;;;20.20;99.90;;;19.50;83.78;96977.81;4953588;29;20730;-74
2022/08/18 06:10:25;;;;;;;9.23;6.57;;;20.20;99.90;;;19.51;83.85;96974.03;4953371;29;20493;-74
2022/08/18 06:12:54;;;;;;;8.38;6.07;;;20.20;99.90;;;19.53;83.76;96983.34;4953062;28;20406;-74
2022/08/18 06:15:28;;;;;;;9.30;6.40;;;20.20;99.90;;;19.54;83.01;96984.94;4953328;28;20481;-75
2022/08/18 06:18:27;;;;;;;8.40;6.20;;;20.20;99.90;;;19.57;82.57;96981.59;4953354;29;20410;-74
2022/08/18 06:21:14;;;;;;;7.25;6.25;;;20.20;99.90;;;19.63;82.91;96976.84;4951952;29;20821;-74
2022/08/18 06:23:53;;;;;;;7.72;6.07;;;20.30;99.90;;;19.67;82.72;96996.59;4952715;28;20488;-74
2022/08/18 06:26:33;;;;;;;7.93;6.00;;;20.40;99.90;;;19.73;82.49;97016.00;4953047;29;20530;-75
2022/08/18 06:29:26;;;;;;;9.70;6.93;;;20.40;99.90;;;19.74;79.14;97014.91;4953141;28;20402;-74
2022/08/18 06:32:04;;;;;;;7.70;6.68;;;20.40;99.90;;;19.77;79.51;97016.97;4952918;29;20412;-74
2022/08/18 06:34:44;;;;;;;8.15;6.47;;;20.40;99.90;;;19.80;78.89;97011.72;4952425;28;20413;-74
2022/08/18 06:37:17;;;;;;;7.00;5.93;;;20.50;99.90;;;19.84;79.18;97011.91;4952969;28;20413;-74
2022/08/18 06:39:48;;;;;;;7.43;6.15;;;20.50;99.90;;;19.87;79.45;97008.56;4952882;29;20433;-74
2022/08/18 06:42:17;;;;;;;8.18;6.40;;;20.50;99.90;;;19.91;79.62;97004.13;4952814;29;20421;-74
2022/08/18 06:44:49;;;;;;;7.80;5.95;;;20.60;99.90;;;19.96;79.81;97001.25;4952263;29;20998;-75
2022/08/18 06:47:29;;;;;;;8.23;6.32;;;20.60;99.90;;;19.99;79.46;97000.63;4952774;28;20390;-74
2022/08/18 06:50:04;;;;;;;7.63;6.25;;;20.60;99.90;;;20.01;78.75;96985.75;4952942;29;20831;-74
2022/08/18 06:52:34;;;;;;;7.37;6.47;;;20.70;99.90;;;20.05;79.12;96975.94;4952582;28;20405;-75
2022/08/18 06:55:08;;;;;;;7.85;5.97;;;20.70;99.90;;;20.09;78.92;96990.31;4952232;28;20449;-74
2022/08/18 06:57:38;;;;;;;7.83;6.33;;;20.70;99.90;;;20.16;79.04;96987.13;4952627;28;20487;-74
2022/08/18 07:00:19;;;;;;;7.80;6.60;;;20.80;99.90;;;20.17;78.70;96982.53;4952535;29;20429;-74
2022/08/18 07:02:51;;;;;;;7.57;5.60;;;20.80;99.90;;;20.21;78.52;96986.16;4951093;29;20406;-74
2022/08/18 07:05:24;;;;;;;7.53;5.67;;;20.80;99.90;;;20.25;78.51;96987.09;4951715;28;20409;-74
2022/08/18 07:08:10;;;;;;;7.40;5.65;;;20.90;99.90;;;20.29;77.72;96991.50;4952440;29;20892;-74
2022/08/18 07:10:40;;;;;;;8.18;5.43;;;20.90;99.90;;;20.33;77.04;96989.78;4952515;29;20807;-74
2022/08/18 07:13:25;;;;;;;7.20;5.37;;;21.00;99.90;;;20.35;74.87;97000.22;4952107;29;20433;-75
2022/08/18 07:15:53;;;;;;;6.60;5.20;;;21.00;99.90;;;20.39;75.29;97009.97;4951855;28;20904;-74
2022/08/18 07:18:26;;;;;;;9.90;5.45;;;21.00;99.90;;;20.42;75.43;97013.94;4952472;28;20414;-75
2022/08/18 07:20:57;;;;;;;7.63;5.55;;;21.10;99.90;;;20.45;74.85;97027.50;4952313;28;20429;-75
2022/08/18 07:23:32;;;;;;;7.18;5.63;;;21.10;99.90;;;20.48;74.86;97037.63;4952031;29;20421;-74
2022/08/18 07:28:35;;;;;;;7.43;5.70;;;21.10;99.90;;;20.49;74.73;97041.09;4950034;29;20516;-76
2022/08/18 07:31:24;;;;;;;8.57;6.03;;;21.10;99.90;;;20.50;74.92;97039.22;4952467;29;20410;-76
2022/08/18 07:33:57;;;;;;;8.20;6.00;;;21.10;99.90;;;20.48;74.64;97044.91;4951937;29;20533;-76
2022/08/18 07:36:30;;;;;;;7.68;5.38;;;21.10;99.90;;;20.45;74.87;97054.41;4956766;28;20782;-76
2022/08/18 07:39:04;;;;;;;9.73;6.47;;;21.10;99.90;;;20.43;74.13;97053.16;4971584;28;20405;-76
2022/08/18 07:41:38;;;;;;;8.13;5.70;;;21.10;99.90;;;20.42;73.44;97057.75;4971497;28;20459;-76
2022/08/18 07:44:18;;;;;;;7.57;5.93;;;21.10;99.90;;;20.38;73.77;97056.78;4971139;28;20500;-76
2022/08/18 07:46:55;;;;;;;8.68;5.85;;;21.00;99.90;;;20.33;74.62;97056.97;4971363;28;20415;-75
2022/08/18 07:49:25;;;;;;;8.38;5.57;;;21.00;99.90;;;20.31;75.51;97064.53;4971415;28;20415;-76
2022/08/18 07:51:56;;;;;;;7.50;5.82;;;21.00;99.90;;;20.29;75.80;97055.25;4971279;28;20841;-76
2022/08/18 07:54:44;;;;;;;8.85;5.93;;;20.90;99.90;;;20.26;75.93;97051.28;4970914;28;20513;-77
2022/08/18 07:57:17;;;;;;;8.45;5.80;;;20.90;99.90;;;20.28;76.33;97053.66;4971223;28;20408;-76
2022/08/18 07:59:53;;;;;;;8.77;5.43;;;20.90;99.90;;;20.32;76.24;97059.94;4970082;28;20412;-76
2022/08/18 08:02:34;;;;;;;11.68;5.82;;;21.00;99.90;;;20.26;74.82;97051.28;4953995;28;20447;-77
2022/08/18 08:05:09;;;;;;;7.07;5.57;;;20.90;99.90;;;20.23;74.60;97051.91;4970781;28;20404;-76
2022/08/18 08:07:47;;;;;;;6.78;5.60;;;20.90;99.90;;;20.19;74.74;97052.88;4971112;28;20504;-76
2022/08/18 08:10:32;;;;;;;10.57;5.40;;;20.80;99.90;;;20.18;75.79;97054.78;4954178;28;20475;-76
2022/08/18 08:13:15;;;;;;;9.40;6.30;;;20.80;99.90;;;20.16;75.06;97057.00;4970903;28;20443;-76
2022/08/18 08:16:00;;;;;;;10.57;5.57;;;20.80;99.90;;;20.15;76.30;97055.41;4971395;28;20424;-75
2022/08/18 08:18:43;;;;;;;9.75;5.68;;;20.80;99.90;;;20.17;76.25;97047.81;4974874;28;20491;-76
2022/08/18 08:21:15;;;;;;;7.35;5.68;;;20.90;99.90;;;20.19;77.14;97034.06;4974718;28;20827;-76
2022/08/18 08:23:51;;;;;;;8.77;5.70;;;20.80;99.90;;;20.22;77.29;97012.72;4974361;28;20439;-76
2022/08/18 08:26:35;;;;;;;7.80;5.30;;;20.90;99.90;;;20.28;77.02;97007.97;4974315;28;20412;-77
2022/08/18 08:29:17;;;;;;;9.23;6.20;;;20.90;99.90;;;20.34;76.18;97020.13;4974542;28;20411;-76
2022/08/18 08:31:53;;;;;;;8.97;6.00;;;21.00;99.90;;;20.40;75.54;97016.16;4974537;28;20549;-76
2022/08/18 08:34:27;;;;;;;7.03;5.72;;;21.00;99.90;;;20.51;76.32;97013.91;4974025;28;20412;-76
2022/08/18 08:37:01;;;;;;;9.60;5.83;;;21.10;99.90;;;20.62;75.79;97012.41;4974361;28;20821;-76
2022/08/18 08:39:35;;;;;;;8.85;6.22;;;21.20;99.90;;;20.73;75.77;97017.09;4974562;28;20906;-76
2022/08/18 08:42:08;;;;;;;8.55;6.50;;;21.30;99.90;;;20.90;74.79;97021.56;4974334;28;20432;-76
2022/08/18 08:44:42;;;;;;;8.05;5.82;;;21.50;99.90;;;21.02;74.54;97012.81;4973853;28;20916;-76
2022/08/18 08:47:19;;;;;;;9.63;6.70;;;21.60;99.90;;;21.09;73.33;97013.88;4974201;28;20567;-76
2022/08/18 08:49:51;;;;;;;8.20;5.95;;;21.70;99.90;;;21.19;72.24;97013.50;4974298;28;20415;-76
2022/08/18 08:52:25;;;;;;;10.20;6.57;;;21.80;99.90;;;21.37;72.07;97016.84;4974100;28;20404;-76
2022/08/18 08:54:58;;;;;;;7.28;5.80;;;21.90;99.90;;;21.48;72.70;97009.16;4973618;28;20412;-76
2022/08/18 08:57:32;;;;;;;12.05;6.68;;;22.00;99.90;;;21.65;72.69;96998.22;4974038;28;20455;-76
2022/08/18 09:00:02;;;;;;;6.53;5.50;;;22.20;99.90;;;21.79;73.35;97000.63;4974009;28;20408;-76
2022/08/18 09:03:00;;;;;;;13.02;6.80;;;22.30;99.90;;;21.84;71.56;97022.75;4973907;28;20447;-76
2022/08/18 09:05:33;;;;;;;9.20;6.85;;;22.40;99.90;;;21.97;69.80;97024.38;4973908;28;20400;-76
2022/08/18 09:08:38;;;;;;;8.57;6.57;;;22.50;99.90;;;21.91;70.19;97006.03;4973904;28;20412;-76
2022/08/18 09:11:36;;;;;;;9.88;6.25;;;22.50;99.90;;;21.90;71.07;96989.06;4973793;28;20432;-76
2022/08/18 09:14:48;;;;;;;8.23;5.85;;;22.50;99.90;;;21.96;71.47;96992.34;4973251;28;20501;-76
2022/08/18 09:17:38;;;;;;;7.18;5.60;;;22.50;99.90;;;22.11;72.17;96986.34;4973643;28;20448;-76
2022/08/18 09:20:29;;;;;;;8.40;6.10;;;22.60;99.90;;;22.28;72.24;96971.88;4973391;28;20404;-76
2022/08/18 09:23:04;;;;;;;10.63;7.07;;;22.80;99.90;;;22.42;71.60;96977.72;4973142;28;20427;-76
2022/08/18 09:25:50;;;;;;;8.77;6.40;;;23.00;99.90;;;22.62;71.49;96976.81;4973564;28;20460;-76
2022/08/18 09:28:21;;;;;;;8.95;6.32;;;23.10;99.90;;;22.78;69.95;96980.41;4972422;28;20404;-76
2022/08/18 09:31:07;;;;;;;8.52;6.63;;;23.30;99.90;;;22.85;67.70;96987.16;4973594;28;20423;-76
2022/08/18 09:34:20;;;;;;;9.93;7.07;;;23.40;99.90;;;22.77;68.45;96992.34;4972565;28;20802;-76
2022/08/18 09:37:03;;;;;;;7.60;6.22;;;23.30;99.90;;;22.79;69.72;96989.28;4969031;28;20474;-75
2022/08/18 09:42:35;;;;;;;7.65;6.40;;;23.40;99.90;;;22.83;69.00;97001.00;4973113;28;20427;-76
2022/08/18 09:45:30;;;;;;;9.52;6.38;;;23.40;99.90;;;22.89;69.24;97006.94;4972670;28;20419;-76
2022/08/18 09:48:22;;;;;;;8.98;6.55;;;23.40;99.90;;;22.94;69.28;97004.78;4972820;28;20412;-76
2022/08/18 09:50:57;;;;;;;11.77;9.00;;;23.50;99.90;;;22.89;65.85;97017.72;4955735;28;20415;-76
2022/08/18 09:53:51;;;;;;;11.05;6.85;;;23.50;97.30;;;22.77;66.94;97021.25;4972566;28;20520;-76
2022/08/18 09:57:16;;;;;;;8.88;6.70;;;23.40;98.10;;;22.82;68.19;97018.31;4972912;28;20489;-76
2022/08/18 10:00:25;;;;;;;7.18;6.35;;;23.30;99.20;;;22.84;68.50;97026.88;4955054;28;20428;-76
2022/08/18 10:03:22;;;;;;;9.60;6.93;;;23.40;99.90;;;22.98;67.63;97021.09;4967013;28;20407;-76
2022/08/18 10:06:05;;;;;;;10.30;6.95;;;23.50;98.80;;;;;;4972684;28;20515;-76
2022/08/18 10:09:11;;;;;;;9.10;7.30;;;23.70;99.90;;;23.43;66.76;97020.88;4972735;28;20418;-76
2022/08/18 10:12:04;;;;;;;9.93;6.05;;;23.90;98.80;;;23.71;66.96;97015.50;4972759;28;20419;-76
2022/08/18 10:15:02;;;;;;;9.60;7.15;;;24.10;98.50;;;23.94;65.66;97008.41;4971501;28;20906;-76
2022/08/18 10:17:47;;;;;;;8.57;7.35;;;24.40;97.20;;;23.93;63.75;97001.41;4972578;28;20432;-76
2022/08/18 10:20:30;;;;;;;12.47;7.43;;;24.50;94.00;;;24.04;62.96;96985.50;4972563;28;20833;-76
2022/08/18 10:22:56;;;;;;;11.45;8.10;;;24.50;93.10;;;24.07;62.85;96988.25;4972012;28;20771;-76
2022/08/18 10:25:37;;;;;;;8.57;6.93;;;24.60;92.60;;;24.40;63.32;96990.66;4972493;28;20752;-76
2022/08/18 10:28:05;;;;;;;10.95;6.47;;;24.90;93.10;;;24.51;63.52;96990.94;4972302;28;20874;-77
2022/08/18 10:31:05;;;;;;;11.48;7.90;;;25.00;93.00;;;24.49;62.80;96966.94;4972355;28;20440;-76
2022/08/18 10:34:05;;;;;;;8.57;7.35;;;25.00;92.20;;;24.66;63.69;96955.69;4971807;28;20434;-76
2022/08/18 10:36:54;;;;;;;10.88;7.95;;;25.10;93.40;;;25.11;63.58;96948.19;4972338;28;20769;-76
2022/08/18 10:39:23;;;;;;;10.02;7.57;;;25.70;93.20;;;25.40;61.41;96936.78;4966657;28;20503;-76
2022/08/18 10:42:09;;;;;;;10.32;7.07;;;26.00;90.70;;;25.51;61.43;96918.00;4972160;28;20424;-77
2022/08/18 10:44:42;;;;;;;8.68;6.80;;;26.10;90.50;;;25.51;59.78;96916.06;4971598;28;20451;-76
2022/08/18 10:47:19;;;;;;;11.25;7.55;;;26.00;88.30;;;25.43;59.07;96942.25;4971995;28;20886;-77
2022/08/18 10:49:49;;;;;;;12.02;8.07;;;26.00;86.30;;;25.27;59.30;96957.00;4972017;28;20487;-76
2022/08/18 10:53:01;;;;;;;8.80;7.32;;;25.80;86.00;;;25.21;59.76;96950.31;4972004;28;20407;-76
2022/08/18 10:55:55;;;;;;;13.40;8.07;;;25.70;86.10;;;25.40;59.93;96937.56;4954975;28;20428;-76
2022/08/18 10:58:43;;;;;;;14.38;7.43;;;26.00;87.40;;;25.54;58.24;96937.06;4972009;28;20960;-76
2022/08/18 11:01:27;;;;;;;13.43;7.37;;;26.20;84.30;;;25.64;57.99;96928.34;4971799;28;20427;-76
2022/08/18 11:04:03;;;;;;;9.82;7.15;;;26.20;83.20;;;25.56;56.86;96915.75;4971334;28;20479;-76
2022/08/18 11:06:40;;;;;;;7.97;6.90;;;26.10;81.40;;;25.56;59.03;96915.75;4971721;28;20408;-75